Terminal Aerodrome Forecast
Issued by NWS Mt. Holly, NJ

Home | Current Version | Previous Version | Text Only | Print | Product List | Glossary On
Versions: 1 2 3 4 5 6 7 8 9 10 11 12 13 14
594
FTUS41 KPHI 242320
TAFTTN
TAF
KTTN 242320Z 2500/2524 23005KT P6SM BKN200
     FM250200 21004KT P6SM SCT100 BKN200
      TEMPO 2503/2506 6SM -SHRA OVC050
     FM251100 21005KT P6SM BKN060 OVC150
     FM251400 26008KT P6SM SCT070 BKN150
     FM252300 27007KT P6SM BKN100=

USA.gov is the U.S. government's official web portal to all federal, state and local government web resources and services.